航空気象通報

ウインドサーファーのための航空気象通報による風予報です。

1/7-1/9の航空気象通報

2019年01月08日 23時35分22秒 | お天気
羽田空港
TAF RJTT 081106Z 0812/0918 26010KT 9999 FEW030
BECMG 0817/0819 34018KT
TEMPO 0819/0906 34024G34KT
BECMG 0915/0918 32008KT
日本時間8日21時-9日02時:260度から10ノットの風
02-04時:風が変化
04-24時:340度から18ノットの風
但し、04-15時の間:時々340度から24ノット、突風34ノット
10日00-03時:風が変化
03時:320度から8ノットの風


静岡空港
TAF RJNS 081105Z 0812/0918 26018KT 9999 FEW030
TEMPO 0812/0821 26022G32KT
BECMG 0903/0906 25006KT
日本時間8日21時-9日12時:260度から18ノットの風
但し、8日21時-9日06時の間:時々260度から22ノット、突風32ノット
12-15時:風が変化
15時-10日03時:250度から6ノットの風


福岡空港
TAF RJFF 081106Z 0812/0918 25006KT 9999 FEW030 BKN040
BECMG 0813/0815 33016KT
TEMPO 0814/0821 33017G27KT
BECMG 0900/0903 03008KT
BECMG 0909/0912 13003KT
日本時間8日21-22時:250度から6ノットの風
22-24時:風が変化
9日00-09時:330度から16ノットの風
但し、8日23時-9日06時の間:時々330度から17ノット、突風27ノット
09-12時:風が変化
12-18時:030度から8ノットの風
18-21時:風が変化
21時-10日03時:130度から3ノットの風


那覇空港
TAF ROAH 081107Z 0812/0918 03012KT 9999 FEW010 BKN020
日本時間8日21時-10日03時:030度から12ノットの風


石垣空港
TAF ROIG 081111Z 0812/0918 04020KT 9999 FEW008 BKN020
TEMPO 0812/0816 4000 SHRA FEW005 BKN008
日本時間8日21時-10日03時:040度から20ノットの風

但し、8日21時-9日01時の間:時々

マウイのカフルイ空港
PHOG 081127Z 0812/0912 14005KT P6SM FEW050
FM082100 04014KT P6SM FEW030 SCT050
FM090400 07008KT P6SM FEW030 SCT050 AMD LTD TO VIS AND WIND TIL 081600
ハワイ時間8日02-11時:140度から5ノットの風
11-18時:040度から14ノットの風
18時-9日02時:070度から8ノットの風


サイパン空港
PGSN 081120Z 0812/0912 07015G24KT P6SM VCSH SCT025 BKN040
マリアナ時間8日22時-9日22時:070度から15ノット、突風24ノット
ジャンル:
お天気
コメント   この記事についてブログを書く
« 1/6-1/8の航空気象通報 | トップ | 1/11-1/13の航空気象通報 »
最近の画像もっと見る

コメントを投稿

ブログ作成者から承認されるまでコメントは反映されません。

お天気」カテゴリの最新記事